Accueil
METAR-TAF:

METAR-TAF

Aéroports :

Midway, États-Unis

latitude: 28-13N, longitude: 177-22W, altitude: 4 m

Observation

Le bulletin a été fait il y a 47 minutes, à 21:56 UTC
Vent 15 kt de nord/nord-est avec des rafales jusqu'à 20 kt
Température 22°C
Humidité 60%
Pression 1025 hPa
Visibilité: 16.1 km
Ciel couvert à une hauteur de 4500 ft

METAR: PMDY 232156Z AUTO 03015G20KT 10SM OVC045 22/14 A3026 RMK AO2 SLP248 T02220139

Heure: 12:43 (22:43 UTC)

Prévision

Le bulletin a été fait il y a 4 heures et 56 minutes, à 17:47 UTC
Prévision valable du 23 à 18 UTC au 24 à 18 UTC
Vent 12 kt de nord/nord-est avec des rafales jusqu'à 18 kt
Visibilité: 10 km
Nuages fragmentés à une hauteur de 5000 ft
A partir de 24 à 0400 UTC
Vent 10 kt de est/nord-est
Visibilité: 10 km
Nuages épars à une hauteur de 5000 ft
Nuages fragmentés à une hauteur de 20000 ft

TAF: PMDY 231747Z 2318/2418 03012G18KT P6SM BKN050 FM240400 06010KT P6SM SCT050 BKN200

Observations et prévisions météorologiques de plus de 4000 aéroports (messages METAR et TAF).

Les stations disponibles sont représentées par des disques jaunes et rouges sur la carte.

Passer la souris dessus pour voir le nom de la station.

Cliquer dessus pour voir les observations et prévisions météorologiques.

Pour changer de carte: cliquez sur les boutons verts avec une croix noire pour zoomer, sur le bouton vert avec un tiret pour effectuer un zoom arrière, ou sur les flèches vertes pour les cartes adjacentes.


METAR-TAF: